sensor_id;sensor_type;location;lat;lon;timestamp;P1;durP1;ratioP1;P2;durP2;ratioP2
78778;SDS011;68121;52.404;5.318;2023-06-24T00:00:09;11.45;;;6.72;;
78778;SDS011;68121;52.404;5.318;2023-06-24T00:02:37;9.82;;;5.43;;
78778;SDS011;68121;52.404;5.318;2023-06-24T00:05:04;9.55;;;6.05;;
78778;SDS011;68121;52.404;5.318;2023-06-24T00:07:32;10.48;;;6.38;;
78778;SDS011;68121;52.404;5.318;2023-06-24T00:10:01;9.23;;;6.57;;
78778;SDS011;68121;52.404;5.318;2023-06-24T00:12:29;9.40;;;6.15;;
78778;SDS011;68121;52.404;5.318;2023-06-24T00:14:55;12.05;;;6.30;;
78778;SDS011;68121;52.404;5.318;2023-06-24T00:17:21;10.10;;;6.50;;
78778;SDS011;68121;52.404;5.318;2023-06-24T00:19:47;10.02;;;6.35;;
78778;SDS011;68121;52.404;5.318;2023-06-24T00:22:13;11.65;;;6.60;;
78778;SDS011;68121;52.404;5.318;2023-06-24T00:24:39;8.88;;;6.07;;
78778;SDS011;68121;52.404;5.318;2023-06-24T00:27:05;11.80;;;6.80;;
78778;SDS011;68121;52.404;5.318;2023-06-24T00:29:31;10.20;;;6.38;;
78778;SDS011;68121;52.404;5.318;2023-06-24T00:31:57;12.45;;;6.85;;
78778;SDS011;68121;52.404;5.318;2023-06-24T00:34:23;11.27;;;6.65;;
78778;SDS011;68121;52.404;5.318;2023-06-24T00:36:49;12.18;;;6.53;;
78778;SDS011;68121;52.404;5.318;2023-06-24T00:39:16;9.05;;;6.18;;
78778;SDS011;68121;52.404;5.318;2023-06-24T00:41:42;10.68;;;5.97;;
78778;SDS011;68121;52.404;5.318;2023-06-24T00:44:09;8.85;;;5.85;;
78778;SDS011;68121;52.404;5.318;2023-06-24T00:46:35;8.32;;;5.82;;
78778;SDS011;68121;52.404;5.318;2023-06-24T00:49:02;10.35;;;6.00;;
78778;SDS011;68121;52.404;5.318;2023-06-24T00:51:28;11.52;;;6.53;;
78778;SDS011;68121;52.404;5.318;2023-06-24T00:53:59;14.95;;;6.25;;
78778;SDS011;68121;52.404;5.318;2023-06-24T00:56:27;8.60;;;6.03;;
78778;SDS011;68121;52.404;5.318;2023-06-24T00:58:59;9.00;;;5.57;;
78778;SDS011;68121;52.404;5.318;2023-06-24T01:01:28;8.88;;;6.10;;
78778;SDS011;68121;52.404;5.318;2023-06-24T01:03:59;11.52;;;6.78;;
78778;SDS011;68121;52.404;5.318;2023-06-24T01:06:28;9.32;;;6.25;;
78778;SDS011;68121;52.404;5.318;2023-06-24T01:08:58;13.35;;;6.70;;
78778;SDS011;68121;52.404;5.318;2023-06-24T01:11:26;11.98;;;6.38;;
78778;SDS011;68121;52.404;5.318;2023-06-24T01:13:52;11.77;;;6.70;;
78778;SDS011;68121;52.404;5.318;2023-06-24T01:16:42;10.40;;;6.40;;
78778;SDS011;68121;52.404;5.318;2023-06-24T01:27:54;9.32;;;6.68;;
78778;SDS011;68121;52.404;5.318;2023-06-24T01:30:46;11.48;;;6.40;;
78778;SDS011;68121;52.404;5.318;2023-06-24T01:33:45;9.20;;;6.45;;
78778;SDS011;68121;52.404;5.318;2023-06-24T01:36:16;9.88;;;5.95;;
78778;SDS011;68121;52.404;5.318;2023-06-24T01:38:48;8.98;;;5.80;;
78778;SDS011;68121;52.404;5.318;2023-06-24T01:41:24;9.48;;;6.32;;
78778;SDS011;68121;52.404;5.318;2023-06-24T01:43:52;9.38;;;6.25;;
78778;SDS011;68121;52.404;5.318;2023-06-24T01:46:22;9.23;;;6.45;;
78778;SDS011;68121;52.404;5.318;2023-06-24T01:48:52;10.00;;;5.97;;
78778;SDS011;68121;52.404;5.318;2023-06-24T01:51:23;9.98;;;6.22;;
78778;SDS011;68121;52.404;5.318;2023-06-24T01:53:51;10.60;;;6.20;;
78778;SDS011;68121;52.404;5.318;2023-06-24T01:56:22;10.77;;;6.68;;
78778;SDS011;68121;52.404;5.318;2023-06-24T01:58:51;9.85;;;6.70;;
78778;SDS011;68121;52.404;5.318;2023-06-24T02:01:19;9.88;;;6.22;;
78778;SDS011;68121;52.404;5.318;2023-06-24T02:03:47;11.70;;;6.38;;
78778;SDS011;68121;52.404;5.318;2023-06-24T02:06:15;12.35;;;6.30;;
78778;SDS011;68121;52.404;5.318;2023-06-24T02:08:43;9.57;;;6.82;;
78778;SDS011;68121;52.404;5.318;2023-06-24T02:11:12;11.00;;;6.93;;
78778;SDS011;68121;52.404;5.318;2023-06-24T02:13:39;12.82;;;6.70;;
78778;SDS011;68121;52.404;5.318;2023-06-24T02:16:08;11.63;;;7.15;;
78778;SDS011;68121;52.404;5.318;2023-06-24T02:18:35;11.77;;;5.80;;
78778;SDS011;68121;52.404;5.318;2023-06-24T02:21:07;9.55;;;6.38;;
78778;SDS011;68121;52.404;5.318;2023-06-24T02:23:35;11.52;;;7.07;;
78778;SDS011;68121;52.404;5.318;2023-06-24T02:26:02;10.95;;;7.30;;
78778;SDS011;68121;52.404;5.318;2023-06-24T02:28:31;10.85;;;6.75;;
78778;SDS011;68121;52.404;5.318;2023-06-24T02:30:58;9.80;;;6.15;;
78778;SDS011;68121;52.404;5.318;2023-06-24T02:33:25;9.70;;;5.72;;
78778;SDS011;68121;52.404;5.318;2023-06-24T02:35:52;10.23;;;5.60;;
78778;SDS011;68121;52.404;5.318;2023-06-24T02:38:18;9.52;;;6.13;;
78778;SDS011;68121;52.404;5.318;2023-06-24T02:40:45;9.18;;;6.00;;
78778;SDS011;68121;52.404;5.318;2023-06-24T02:43:11;10.02;;;6.00;;
78778;SDS011;68121;52.404;5.318;2023-06-24T02:45:38;8.18;;;5.70;;
78778;SDS011;68121;52.404;5.318;2023-06-24T02:48:05;11.13;;;5.30;;
78778;SDS011;68121;52.404;5.318;2023-06-24T02:50:34;8.75;;;5.68;;
78778;SDS011;68121;52.404;5.318;2023-06-24T02:53:02;9.52;;;5.18;;
78778;SDS011;68121;52.404;5.318;2023-06-24T02:55:28;9.65;;;5.38;;
78778;SDS011;68121;52.404;5.318;2023-06-24T02:57:55;10.45;;;5.32;;
78778;SDS011;68121;52.404;5.318;2023-06-24T03:00:23;7.80;;;5.00;;
78778;SDS011;68121;52.404;5.318;2023-06-24T03:02:51;7.32;;;4.93;;
78778;SDS011;68121;52.404;5.318;2023-06-24T03:05:17;5.60;;;3.95;;
78778;SDS011;68121;52.404;5.318;2023-06-24T03:07:44;9.13;;;4.85;;
78778;SDS011;68121;52.404;5.318;2023-06-24T03:10:11;9.48;;;4.80;;
78778;SDS011;68121;52.404;5.318;2023-06-24T03:12:38;7.90;;;4.97;;
78778;SDS011;68121;52.404;5.318;2023-06-24T03:15:04;7.68;;;4.80;;
78778;SDS011;68121;52.404;5.318;2023-06-24T03:17:31;9.55;;;4.78;;
78778;SDS011;68121;52.404;5.318;2023-06-24T03:19:57;8.27;;;4.32;;
78778;SDS011;68121;52.404;5.318;2023-06-24T03:22:23;6.78;;;4.72;;
78778;SDS011;68121;52.404;5.318;2023-06-24T03:24:49;6.25;;;3.97;;
78778;SDS011;68121;52.404;5.318;2023-06-24T03:27:18;7.20;;;4.18;;
78778;SDS011;68121;52.404;5.318;2023-06-24T03:29:44;10.70;;;4.45;;
78778;SDS011;68121;52.404;5.318;2023-06-24T03:32:10;7.03;;;4.60;;
78778;SDS011;68121;52.404;5.318;2023-06-24T03:34:36;8.15;;;4.65;;
78778;SDS011;68121;52.404;5.318;2023-06-24T03:37:02;7.93;;;4.80;;
78778;SDS011;68121;52.404;5.318;2023-06-24T03:39:29;6.07;;;4.32;;
78778;SDS011;68121;52.404;5.318;2023-06-24T03:41:56;7.82;;;3.95;;
78778;SDS011;68121;52.404;5.318;2023-06-24T03:44:22;6.22;;;3.78;;
78778;SDS011;68121;52.404;5.318;2023-06-24T03:46:48;8.35;;;4.47;;
78778;SDS011;68121;52.404;5.318;2023-06-24T03:49:14;8.38;;;3.75;;
78778;SDS011;68121;52.404;5.318;2023-06-24T03:51:40;6.10;;;3.55;;
78778;SDS011;68121;52.404;5.318;2023-06-24T03:54:06;6.40;;;3.80;;
78778;SDS011;68121;52.404;5.318;2023-06-24T03:56:32;7.40;;;3.55;;
78778;SDS011;68121;52.404;5.318;2023-06-24T03:58:58;5.70;;;3.65;;
78778;SDS011;68121;52.404;5.318;2023-06-24T04:01:24;7.00;;;3.47;;
78778;SDS011;68121;52.404;5.318;2023-06-24T04:03:50;6.45;;;4.03;;
78778;SDS011;68121;52.404;5.318;2023-06-24T04:06:16;5.25;;;3.15;;
78778;SDS011;68121;52.404;5.318;2023-06-24T04:08:42;6.30;;;3.55;;
78778;SDS011;68121;52.404;5.318;2023-06-24T04:11:09;4.55;;;2.97;;
78778;SDS011;68121;52.404;5.318;2023-06-24T04:13:35;5.55;;;3.20;;
78778;SDS011;68121;52.404;5.318;2023-06-24T04:16:01;6.90;;;3.30;;
78778;SDS011;68121;52.404;5.318;2023-06-24T04:18:27;5.20;;;2.97;;
78778;SDS011;68121;52.404;5.318;2023-06-24T04:20:53;4.57;;;3.00;;
78778;SDS011;68121;52.404;5.318;2023-06-24T04:23:20;3.80;;;2.65;;
78778;SDS011;68121;52.404;5.318;2023-06-24T04:25:46;5.50;;;2.90;;
78778;SDS011;68121;52.404;5.318;2023-06-24T04:28:12;5.40;;;2.38;;
78778;SDS011;68121;52.404;5.318;2023-06-24T04:30:38;4.03;;;2.40;;
78778;SDS011;68121;52.404;5.318;2023-06-24T04:33:04;3.10;;;2.28;;
78778;SDS011;68121;52.404;5.318;2023-06-24T04:35:30;4.50;;;2.78;;
78778;SDS011;68121;52.404;5.318;2023-06-24T04:37:56;4.53;;;2.67;;
78778;SDS011;68121;52.404;5.318;2023-06-24T04:40:22;3.60;;;2.45;;
78778;SDS011;68121;52.404;5.318;2023-06-24T04:42:48;3.58;;;2.28;;
78778;SDS011;68121;52.404;5.318;2023-06-24T04:45:15;4.82;;;2.28;;
78778;SDS011;68121;52.404;5.318;2023-06-24T04:47:41;3.83;;;2.45;;
78778;SDS011;68121;52.404;5.318;2023-06-24T04:50:07;5.05;;;2.67;;
78778;SDS011;68121;52.404;5.318;2023-06-24T04:52:36;3.92;;;2.33;;
78778;SDS011;68121;52.404;5.318;2023-06-24T04:55:02;5.28;;;2.63;;
78778;SDS011;68121;52.404;5.318;2023-06-24T04:57:29;5.88;;;1.83;;
78778;SDS011;68121;52.404;5.318;2023-06-24T04:59:56;3.80;;;2.35;;
78778;SDS011;68121;52.404;5.318;2023-06-24T05:02:23;3.38;;;1.95;;
78778;SDS011;68121;52.404;5.318;2023-06-24T05:04:51;3.97;;;2.03;;
78778;SDS011;68121;52.404;5.318;2023-06-24T05:07:17;4.03;;;1.67;;
78778;SDS011;68121;52.404;5.318;2023-06-24T05:09:45;3.38;;;1.67;;
78778;SDS011;68121;52.404;5.318;2023-06-24T05:12:12;7.57;;;2.15;;
78778;SDS011;68121;52.404;5.318;2023-06-24T05:14:38;3.40;;;1.85;;
78778;SDS011;68121;52.404;5.318;2023-06-24T05:17:04;5.43;;;1.98;;
78778;SDS011;68121;52.404;5.318;2023-06-24T05:19:31;3.03;;;1.80;;
78778;SDS011;68121;52.404;5.318;2023-06-24T05:21:57;3.97;;;1.48;;
78778;SDS011;68121;52.404;5.318;2023-06-24T05:24:23;3.20;;;2.00;;
78778;SDS011;68121;52.404;5.318;2023-06-24T05:26:50;4.88;;;2.28;;
78778;SDS011;68121;52.404;5.318;2023-06-24T05:29:16;6.03;;;2.30;;
78778;SDS011;68121;52.404;5.318;2023-06-24T05:31:43;4.20;;;1.88;;
78778;SDS011;68121;52.404;5.318;2023-06-24T05:34:09;6.25;;;1.90;;
78778;SDS011;68121;52.404;5.318;2023-06-24T05:36:35;4.03;;;2.10;;
78778;SDS011;68121;52.404;5.318;2023-06-24T05:39:01;3.30;;;2.03;;
78778;SDS011;68121;52.404;5.318;2023-06-24T05:41:27;3.55;;;2.00;;
78778;SDS011;68121;52.404;5.318;2023-06-24T05:44:03;4.55;;;2.10;;
78778;SDS011;68121;52.404;5.318;2023-06-24T05:46:32;3.92;;;1.98;;
78778;SDS011;68121;52.404;5.318;2023-06-24T05:48:58;2.45;;;1.77;;
78778;SDS011;68121;52.404;5.318;2023-06-24T05:51:25;3.42;;;1.95;;
78778;SDS011;68121;52.404;5.318;2023-06-24T05:53:51;3.35;;;2.10;;
78778;SDS011;68121;52.404;5.318;2023-06-24T05:56:17;4.85;;;2.22;;
78778;SDS011;68121;52.404;5.318;2023-06-24T05:58:43;5.78;;;1.83;;
78778;SDS011;68121;52.404;5.318;2023-06-24T06:01:09;5.82;;;2.13;;
78778;SDS011;68121;52.404;5.318;2023-06-24T06:03:36;7.22;;;2.88;;
78778;SDS011;68121;52.404;5.318;2023-06-24T06:06:02;3.92;;;2.00;;
78778;SDS011;68121;52.404;5.318;2023-06-24T06:08:28;3.42;;;2.47;;
78778;SDS011;68121;52.404;5.318;2023-06-24T06:10:54;7.28;;;2.35;;
78778;SDS011;68121;52.404;5.318;2023-06-24T06:13:20;4.70;;;2.60;;
78778;SDS011;68121;52.404;5.318;2023-06-24T06:15:46;4.57;;;2.42;;
78778;SDS011;68121;52.404;5.318;2023-06-24T06:18:12;4.88;;;1.95;;
78778;SDS011;68121;52.404;5.318;2023-06-24T06:20:38;4.47;;;2.30;;
78778;SDS011;68121;52.404;5.318;2023-06-24T06:23:04;4.88;;;2.72;;
78778;SDS011;68121;52.404;5.318;2023-06-24T06:25:30;7.32;;;3.00;;
78778;SDS011;68121;52.404;5.318;2023-06-24T06:27:56;5.68;;;2.85;;
78778;SDS011;68121;52.404;5.318;2023-06-24T06:30:23;6.82;;;2.90;;
78778;SDS011;68121;52.404;5.318;2023-06-24T06:32:49;5.50;;;2.78;;
78778;SDS011;68121;52.404;5.318;2023-06-24T06:35:15;6.50;;;2.47;;
78778;SDS011;68121;52.404;5.318;2023-06-24T06:37:41;5.32;;;2.35;;
78778;SDS011;68121;52.404;5.318;2023-06-24T06:40:08;5.60;;;2.97;;
78778;SDS011;68121;52.404;5.318;2023-06-24T06:42:34;4.82;;;3.28;;
78778;SDS011;68121;52.404;5.318;2023-06-24T06:45:00;5.32;;;2.33;;
78778;SDS011;68121;52.404;5.318;2023-06-24T06:47:26;4.28;;;2.55;;
78778;SDS011;68121;52.404;5.318;2023-06-24T06:49:52;4.22;;;2.47;;
78778;SDS011;68121;52.404;5.318;2023-06-24T06:52:18;4.32;;;2.50;;
78778;SDS011;68121;52.404;5.318;2023-06-24T06:54:44;4.60;;;2.55;;
78778;SDS011;68121;52.404;5.318;2023-06-24T06:57:10;5.82;;;2.63;;
78778;SDS011;68121;52.404;5.318;2023-06-24T06:59:36;4.60;;;2.58;;
78778;SDS011;68121;52.404;5.318;2023-06-24T07:02:03;3.78;;;2.28;;
78778;SDS011;68121;52.404;5.318;2023-06-24T07:04:29;3.85;;;2.28;;
78778;SDS011;68121;52.404;5.318;2023-06-24T07:06:56;5.95;;;2.92;;
78778;SDS011;68121;52.404;5.318;2023-06-24T07:09:22;4.78;;;3.00;;
78778;SDS011;68121;52.404;5.318;2023-06-24T07:11:48;4.05;;;2.58;;
78778;SDS011;68121;52.404;5.318;2023-06-24T07:14:14;3.88;;;2.42;;
78778;SDS011;68121;52.404;5.318;2023-06-24T07:16:40;5.18;;;2.47;;
78778;SDS011;68121;52.404;5.318;2023-06-24T07:19:06;4.32;;;2.75;;
78778;SDS011;68121;52.404;5.318;2023-06-24T07:21:32;5.22;;;3.08;;
78778;SDS011;68121;52.404;5.318;2023-06-24T07:23:58;4.18;;;2.40;;
78778;SDS011;68121;52.404;5.318;2023-06-24T07:26:24;6.32;;;2.97;;
78778;SDS011;68121;52.404;5.318;2023-06-24T07:28:55;5.68;;;2.55;;
78778;SDS011;68121;52.404;5.318;2023-06-24T07:31:22;6.07;;;2.83;;
78778;SDS011;68121;52.404;5.318;2023-06-24T07:33:48;5.60;;;2.72;;
78778;SDS011;68121;52.404;5.318;2023-06-24T07:36:14;4.10;;;2.42;;
78778;SDS011;68121;52.404;5.318;2023-06-24T07:38:40;4.00;;;2.20;;
78778;SDS011;68121;52.404;5.318;2023-06-24T07:41:07;4.22;;;2.58;;
78778;SDS011;68121;52.404;5.318;2023-06-24T07:43:33;4.45;;;2.20;;
78778;SDS011;68121;52.404;5.318;2023-06-24T07:45:59;4.57;;;2.15;;
78778;SDS011;68121;52.404;5.318;2023-06-24T07:48:25;4.88;;;2.60;;
78778;SDS011;68121;52.404;5.318;2023-06-24T07:50:51;3.63;;;2.35;;
78778;SDS011;68121;52.404;5.318;2023-06-24T07:53:17;7.70;;;2.40;;
78778;SDS011;68121;52.404;5.318;2023-06-24T07:55:43;5.18;;;2.28;;
78778;SDS011;68121;52.404;5.318;2023-06-24T07:58:09;3.85;;;2.47;;
78778;SDS011;68121;52.404;5.318;2023-06-24T08:00:35;4.57;;;2.72;;
78778;SDS011;68121;52.404;5.318;2023-06-24T08:03:01;4.97;;;2.67;;
78778;SDS011;68121;52.404;5.318;2023-06-24T08:05:28;4.25;;;2.17;;
78778;SDS011;68121;52.404;5.318;2023-06-24T08:07:54;4.15;;;2.35;;
78778;SDS011;68121;52.404;5.318;2023-06-24T08:10:20;5.78;;;2.80;;
78778;SDS011;68121;52.404;5.318;2023-06-24T08:12:46;3.55;;;2.22;;
78778;SDS011;68121;52.404;5.318;2023-06-24T08:15:12;6.50;;;2.50;;
78778;SDS011;68121;52.404;5.318;2023-06-24T08:17:38;5.13;;;2.78;;
78778;SDS011;68121;52.404;5.318;2023-06-24T08:20:06;3.72;;;2.00;;
78778;SDS011;68121;52.404;5.318;2023-06-24T08:22:32;3.88;;;2.33;;
78778;SDS011;68121;52.404;5.318;2023-06-24T08:24:58;2.85;;;2.13;;
78778;SDS011;68121;52.404;5.318;2023-06-24T08:27:24;4.88;;;2.05;;
78778;SDS011;68121;52.404;5.318;2023-06-24T08:29:50;4.57;;;2.65;;
78778;SDS011;68121;52.404;5.318;2023-06-24T08:32:16;3.95;;;2.30;;
78778;SDS011;68121;52.404;5.318;2023-06-24T08:34:42;4.43;;;2.30;;
78778;SDS011;68121;52.404;5.318;2023-06-24T08:37:09;3.05;;;2.08;;
78778;SDS011;68121;52.404;5.318;2023-06-24T08:39:35;7.85;;;3.33;;
78778;SDS011;68121;52.404;5.318;2023-06-24T08:42:02;6.20;;;2.60;;
78778;SDS011;68121;52.404;5.318;2023-06-24T08:44:28;4.57;;;2.50;;
78778;SDS011;68121;52.404;5.318;2023-06-24T08:46:54;7.38;;;2.72;;
78778;SDS011;68121;52.404;5.318;2023-06-24T08:51:49;5.43;;;2.70;;
78778;SDS011;68121;52.404;5.318;2023-06-24T08:54:20;4.55;;;2.38;;
78778;SDS011;68121;52.404;5.318;2023-06-24T08:56:48;7.90;;;3.20;;
78778;SDS011;68121;52.404;5.318;2023-06-24T08:59:17;5.07;;;2.80;;
78778;SDS011;68121;52.404;5.318;2023-06-24T09:01:45;3.75;;;2.50;;
78778;SDS011;68121;52.404;5.318;2023-06-24T09:04:12;5.32;;;2.70;;
78778;SDS011;68121;52.404;5.318;2023-06-24T09:06:38;5.57;;;2.72;;
78778;SDS011;68121;52.404;5.318;2023-06-24T09:09:04;3.72;;;2.38;;
78778;SDS011;68121;52.404;5.318;2023-06-24T09:11:42;7.05;;;2.90;;
78778;SDS011;68121;52.404;5.318;2023-06-24T09:14:36;6.13;;;2.88;;
78778;SDS011;68121;52.404;5.318;2023-06-24T09:17:02;4.45;;;2.72;;
78778;SDS011;68121;52.404;5.318;2023-06-24T09:19:28;4.90;;;2.55;;
78778;SDS011;68121;52.404;5.318;2023-06-24T09:21:55;5.00;;;2.75;;
78778;SDS011;68121;52.404;5.318;2023-06-24T09:24:32;7.57;;;2.67;;
78778;SDS011;68121;52.404;5.318;2023-06-24T09:26:59;4.22;;;2.80;;
78778;SDS011;68121;52.404;5.318;2023-06-24T09:29:34;5.00;;;3.33;;
78778;SDS011;68121;52.404;5.318;2023-06-24T09:32:03;3.72;;;2.55;;
78778;SDS011;68121;52.404;5.318;2023-06-24T09:34:30;5.18;;;2.65;;
78778;SDS011;68121;52.404;5.318;2023-06-24T09:36:57;5.55;;;2.72;;
78778;SDS011;68121;52.404;5.318;2023-06-24T09:39:25;3.47;;;2.83;;
78778;SDS011;68121;52.404;5.318;2023-06-24T09:41:55;5.93;;;3.30;;
78778;SDS011;68121;52.404;5.318;2023-06-24T09:44:27;6.43;;;2.95;;
78778;SDS011;68121;52.404;5.318;2023-06-24T09:46:54;6.53;;;3.20;;
78778;SDS011;68121;52.404;5.318;2023-06-24T09:49:24;5.82;;;2.63;;
78778;SDS011;68121;52.404;5.318;2023-06-24T09:51:53;4.30;;;2.75;;
78778;SDS011;68121;52.404;5.318;2023-06-24T09:54:22;4.18;;;2.83;;
78778;SDS011;68121;52.404;5.318;2023-06-24T09:56:51;6.40;;;3.42;;
78778;SDS011;68121;52.404;5.318;2023-06-24T09:59:19;5.82;;;3.30;;
78778;SDS011;68121;52.404;5.318;2023-06-24T10:01:46;4.90;;;3.22;;
78778;SDS011;68121;52.404;5.318;2023-06-24T10:04:17;5.05;;;3.10;;
78778;SDS011;68121;52.404;5.318;2023-06-24T10:06:44;8.27;;;3.92;;
78778;SDS011;68121;52.404;5.318;2023-06-24T10:09:11;8.20;;;3.55;;
78778;SDS011;68121;52.404;5.318;2023-06-24T10:11:39;5.63;;;3.53;;
78778;SDS011;68121;52.404;5.318;2023-06-24T10:14:05;4.55;;;3.22;;
78778;SDS011;68121;52.404;5.318;2023-06-24T10:16:31;6.93;;;3.50;;
78778;SDS011;68121;52.404;5.318;2023-06-24T10:19:01;6.00;;;3.97;;
78778;SDS011;68121;52.404;5.318;2023-06-24T10:21:44;8.07;;;4.47;;
78778;SDS011;68121;52.404;5.318;2023-06-24T10:24:30;7.82;;;4.55;;
78778;SDS011;68121;52.404;5.318;2023-06-24T10:27:04;7.38;;;3.85;;
78778;SDS011;68121;52.404;5.318;2023-06-24T10:29:36;6.22;;;3.08;;
78778;SDS011;68121;52.404;5.318;2023-06-24T10:32:03;5.43;;;3.63;;
78778;SDS011;68121;52.404;5.318;2023-06-24T10:37:05;7.82;;;4.43;;
78778;SDS011;68121;52.404;5.318;2023-06-24T10:40:17;8.20;;;4.50;;
78778;SDS011;68121;52.404;5.318;2023-06-24T10:42:29;7.15;;;4.28;;
78778;SDS011;68121;52.404;5.318;2023-06-24T10:44:57;6.60;;;4.47;;
78778;SDS011;68121;52.404;5.318;2023-06-24T10:47:37;6.22;;;3.88;;
78778;SDS011;68121;52.404;5.318;2023-06-24T10:50:04;8.65;;;4.07;;
78778;SDS011;68121;52.404;5.318;2023-06-24T10:52:31;7.05;;;4.35;;
78778;SDS011;68121;52.404;5.318;2023-06-24T10:54:58;7.90;;;4.03;;
78778;SDS011;68121;52.404;5.318;2023-06-24T10:57:25;6.75;;;4.05;;
78778;SDS011;68121;52.404;5.318;2023-06-24T10:59:53;7.05;;;3.70;;
78778;SDS011;68121;52.404;5.318;2023-06-24T11:02:24;7.60;;;3.92;;
78778;SDS011;68121;52.404;5.318;2023-06-24T11:04:52;8.52;;;4.70;;
78778;SDS011;68121;52.404;5.318;2023-06-24T11:07:20;7.97;;;4.32;;
78778;SDS011;68121;52.404;5.318;2023-06-24T11:09:54;6.78;;;4.10;;
78778;SDS011;68121;52.404;5.318;2023-06-24T11:12:25;6.00;;;3.80;;
78778;SDS011;68121;52.404;5.318;2023-06-24T11:15:11;6.40;;;3.58;;
78778;SDS011;68121;52.404;5.318;2023-06-24T11:17:39;5.75;;;3.67;;
78778;SDS011;68121;52.404;5.318;2023-06-24T11:20:10;7.60;;;4.28;;
78778;SDS011;68121;52.404;5.318;2023-06-24T11:22:39;6.70;;;4.55;;
78778;SDS011;68121;52.404;5.318;2023-06-24T11:25:06;7.60;;;4.43;;
78778;SDS011;68121;52.404;5.318;2023-06-24T11:27:41;4.40;;;3.28;;
78778;SDS011;68121;52.404;5.318;2023-06-24T11:30:07;5.20;;;3.10;;
78778;SDS011;68121;52.404;5.318;2023-06-24T11:32:40;16.02;;;4.47;;
78778;SDS011;68121;52.404;5.318;2023-06-24T11:35:08;5.32;;;3.30;;
78778;SDS011;68121;52.404;5.318;2023-06-24T11:37:36;6.40;;;3.63;;
78778;SDS011;68121;52.404;5.318;2023-06-24T11:40:03;5.82;;;3.60;;
78778;SDS011;68121;52.404;5.318;2023-06-24T11:42:31;4.45;;;2.83;;
78778;SDS011;68121;52.404;5.318;2023-06-24T11:44:59;4.55;;;3.03;;
78778;SDS011;68121;52.404;5.318;2023-06-24T11:47:32;6.57;;;3.53;;
78778;SDS011;68121;52.404;5.318;2023-06-24T11:49:59;4.22;;;3.45;;
78778;SDS011;68121;52.404;5.318;2023-06-24T11:52:37;4.38;;;2.90;;
78778;SDS011;68121;52.404;5.318;2023-06-24T11:55:21;6.47;;;3.90;;
78778;SDS011;68121;52.404;5.318;2023-06-24T11:58:00;6.47;;;3.30;;
78778;SDS011;68121;52.404;5.318;2023-06-24T12:00:31;6.50;;;3.70;;
78778;SDS011;68121;52.404;5.318;2023-06-24T12:03:01;5.63;;;3.40;;
78778;SDS011;68121;52.404;5.318;2023-06-24T12:05:31;4.43;;;3.08;;
78778;SDS011;68121;52.404;5.318;2023-06-24T12:07:58;4.80;;;3.20;;
78778;SDS011;68121;52.404;5.318;2023-06-24T12:10:32;4.38;;;3.05;;
78778;SDS011;68121;52.404;5.318;2023-06-24T12:13:00;5.93;;;3.50;;
78778;SDS011;68121;52.404;5.318;2023-06-24T12:15:26;7.07;;;3.67;;
78778;SDS011;68121;52.404;5.318;2023-06-24T12:17:53;6.10;;;2.83;;
78778;SDS011;68121;52.404;5.318;2023-06-24T12:20:20;4.45;;;3.40;;
78778;SDS011;68121;52.404;5.318;2023-06-24T12:22:46;5.85;;;2.92;;
78778;SDS011;68121;52.404;5.318;2023-06-24T12:25:13;4.18;;;2.88;;
78778;SDS011;68121;52.404;5.318;2023-06-24T12:27:41;4.22;;;3.45;;
78778;SDS011;68121;52.404;5.318;2023-06-24T12:30:08;6.20;;;3.47;;
78778;SDS011;68121;52.404;5.318;2023-06-24T12:32:34;6.07;;;3.55;;
78778;SDS011;68121;52.404;5.318;2023-06-24T12:35:01;6.65;;;3.72;;
78778;SDS011;68121;52.404;5.318;2023-06-24T12:37:32;5.88;;;3.20;;
78778;SDS011;68121;52.404;5.318;2023-06-24T12:39:59;7.72;;;3.00;;
78778;SDS011;68121;52.404;5.318;2023-06-24T12:42:26;6.85;;;3.85;;
78778;SDS011;68121;52.404;5.318;2023-06-24T12:44:52;5.07;;;3.78;;
78778;SDS011;68121;52.404;5.318;2023-06-24T12:47:19;6.55;;;3.78;;
78778;SDS011;68121;52.404;5.318;2023-06-24T12:49:45;6.30;;;3.45;;
78778;SDS011;68121;52.404;5.318;2023-06-24T12:52:12;6.20;;;3.72;;
78778;SDS011;68121;52.404;5.318;2023-06-24T12:54:39;4.50;;;3.42;;
78778;SDS011;68121;52.404;5.318;2023-06-24T12:57:05;6.00;;;3.65;;
78778;SDS011;68121;52.404;5.318;2023-06-24T12:59:31;6.13;;;3.70;;
78778;SDS011;68121;52.404;5.318;2023-06-24T13:01:57;5.93;;;3.58;;
78778;SDS011;68121;52.404;5.318;2023-06-24T13:04:24;5.53;;;3.00;;
78778;SDS011;68121;52.404;5.318;2023-06-24T13:06:53;6.03;;;3.80;;
78778;SDS011;68121;52.404;5.318;2023-06-24T13:09:19;7.47;;;3.70;;
78778;SDS011;68121;52.404;5.318;2023-06-24T13:11:46;4.90;;;3.88;;
78778;SDS011;68121;52.404;5.318;2023-06-24T13:14:12;7.13;;;3.88;;
78778;SDS011;68121;52.404;5.318;2023-06-24T13:16:39;6.32;;;3.75;;
78778;SDS011;68121;52.404;5.318;2023-06-24T13:19:05;6.88;;;3.72;;
78778;SDS011;68121;52.404;5.318;2023-06-24T13:21:31;8.02;;;3.55;;
78778;SDS011;68121;52.404;5.318;2023-06-24T13:23:57;5.40;;;3.50;;
78778;SDS011;68121;52.404;5.318;2023-06-24T13:26:23;6.65;;;3.70;;
78778;SDS011;68121;52.404;5.318;2023-06-24T13:28:50;8.27;;;4.32;;
78778;SDS011;68121;52.404;5.318;2023-06-24T13:31:16;6.43;;;4.20;;
78778;SDS011;68121;52.404;5.318;2023-06-24T13:33:42;9.68;;;5.20;;
78778;SDS011;68121;52.404;5.318;2023-06-24T13:36:09;5.85;;;4.05;;
78778;SDS011;68121;52.404;5.318;2023-06-24T13:38:53;7.78;;;4.20;;
78778;SDS011;68121;52.404;5.318;2023-06-24T13:41:19;6.13;;;4.43;;
78778;SDS011;68121;52.404;5.318;2023-06-24T13:43:45;8.18;;;5.43;;
78778;SDS011;68121;52.404;5.318;2023-06-24T13:46:11;11.95;;;4.45;;
78778;SDS011;68121;52.404;5.318;2023-06-24T13:48:37;8.55;;;4.35;;
78778;SDS011;68121;52.404;5.318;2023-06-24T13:51:03;10.10;;;4.25;;
78778;SDS011;68121;52.404;5.318;2023-06-24T13:53:29;7.13;;;4.47;;
78778;SDS011;68121;52.404;5.318;2023-06-24T13:55:55;6.85;;;4.30;;
78778;SDS011;68121;52.404;5.318;2023-06-24T13:58:21;10.35;;;5.50;;
78778;SDS011;68121;52.404;5.318;2023-06-24T14:00:47;6.30;;;4.30;;
78778;SDS011;68121;52.404;5.318;2023-06-24T14:03:13;8.25;;;4.97;;
78778;SDS011;68121;52.404;5.318;2023-06-24T14:05:39;7.82;;;4.45;;
78778;SDS011;68121;52.404;5.318;2023-06-24T14:08:05;8.20;;;4.55;;
78778;SDS011;68121;52.404;5.318;2023-06-24T14:10:31;7.75;;;5.13;;
78778;SDS011;68121;52.404;5.318;2023-06-24T14:12:57;9.63;;;4.53;;
78778;SDS011;68121;52.404;5.318;2023-06-24T14:15:23;8.75;;;4.55;;
78778;SDS011;68121;52.404;5.318;2023-06-24T14:17:50;12.50;;;6.03;;
78778;SDS011;68121;52.404;5.318;2023-06-24T14:20:16;9.35;;;4.95;;
78778;SDS011;68121;52.404;5.318;2023-06-24T14:22:42;10.13;;;5.22;;
78778;SDS011;68121;52.404;5.318;2023-06-24T14:25:08;8.63;;;4.63;;
78778;SDS011;68121;52.404;5.318;2023-06-24T14:27:34;9.25;;;5.00;;
78778;SDS011;68121;52.404;5.318;2023-06-24T14:30:00;9.05;;;4.50;;
78778;SDS011;68121;52.404;5.318;2023-06-24T14:32:26;9.43;;;4.97;;
78778;SDS011;68121;52.404;5.318;2023-06-24T14:34:52;7.72;;;4.28;;
78778;SDS011;68121;52.404;5.318;2023-06-24T14:37:18;9.02;;;5.05;;
78778;SDS011;68121;52.404;5.318;2023-06-24T14:39:44;10.32;;;4.28;;
78778;SDS011;68121;52.404;5.318;2023-06-24T14:42:10;7.75;;;4.70;;
78778;SDS011;68121;52.404;5.318;2023-06-24T14:44:36;10.48;;;4.60;;
78778;SDS011;68121;52.404;5.318;2023-06-24T14:47:03;8.07;;;4.53;;
78778;SDS011;68121;52.404;5.318;2023-06-24T14:49:29;5.68;;;3.60;;
78778;SDS011;68121;52.404;5.318;2023-06-24T14:51:55;7.65;;;3.83;;
78778;SDS011;68121;52.404;5.318;2023-06-24T14:54:22;6.97;;;4.43;;
78778;SDS011;68121;52.404;5.318;2023-06-24T14:56:48;9.90;;;4.82;;
78778;SDS011;68121;52.404;5.318;2023-06-24T14:59:14;7.70;;;4.40;;
78778;SDS011;68121;52.404;5.318;2023-06-24T15:01:40;9.18;;;4.15;;